createdAt,value
2018-07-26T00:00:30.414Z,9.37
2018-07-26T00:02:59.044Z,8.97
2018-07-26T00:05:27.675Z,8.70
2018-07-26T00:07:56.348Z,8.83
2018-07-26T00:10:24.992Z,8.83
2018-07-26T00:12:54.144Z,8.43
2018-07-26T00:15:22.760Z,8.33
2018-07-26T00:17:51.403Z,9.03
2018-07-26T00:20:20.016Z,8.53
2018-07-26T00:22:48.690Z,9.17
2018-07-26T00:25:17.339Z,8.20
2018-07-26T00:27:46.168Z,8.63
2018-07-26T00:30:14.806Z,8.77
2018-07-26T00:32:43.443Z,8.77
2018-07-26T00:35:12.116Z,9.13
2018-07-26T00:37:40.728Z,8.37
2018-07-26T00:40:09.372Z,8.27
2018-07-26T00:42:38.001Z,8.83
2018-07-26T00:45:07.093Z,9.00
2018-07-26T00:47:35.735Z,8.80
2018-07-26T00:50:04.576Z,9.43
2018-07-26T00:52:33.235Z,9.30
2018-07-26T00:55:01.885Z,9.37
2018-07-26T00:57:30.503Z,9.03
2018-07-26T00:59:59.099Z,9.13
2018-07-26T01:02:27.791Z,9.37
2018-07-26T01:04:56.457Z,8.67
2018-07-26T01:07:25.113Z,8.90
2018-07-26T01:09:53.740Z,9.33
2018-07-26T01:12:22.371Z,9.33
2018-07-26T01:14:50.996Z,9.77
2018-07-26T01:17:19.663Z,9.70
2018-07-26T01:19:48.299Z,9.50
2018-07-26T01:22:16.931Z,9.23
2018-07-26T01:24:45.555Z,8.80
2018-07-26T01:27:14.163Z,9.50
2018-07-26T01:29:42.772Z,9.63
2018-07-26T01:32:11.775Z,9.00
2018-07-26T01:34:40.562Z,9.17
2018-07-26T01:37:09.327Z,9.63
2018-07-26T01:39:37.614Z,9.23
2018-07-26T01:42:06.244Z,9.20
2018-07-26T01:44:34.940Z,8.97
2018-07-26T01:47:03.590Z,9.10
2018-07-26T01:49:32.220Z,9.10
2018-07-26T01:52:00.889Z,10.17
2018-07-26T01:54:29.530Z,9.13
2018-07-26T01:56:58.172Z,8.63
2018-07-26T01:59:26.821Z,10.20
2018-07-26T02:01:55.456Z,9.67
2018-07-26T02:04:24.080Z,8.97
2018-07-26T02:06:52.826Z,9.73
2018-07-26T02:09:21.426Z,9.57
2018-07-26T02:11:50.068Z,9.87
2018-07-26T02:14:24.174Z,9.53
2018-07-26T02:16:52.843Z,9.33
2018-07-26T02:19:21.512Z,9.60
2018-07-26T02:21:50.143Z,9.80
2018-07-26T02:24:18.761Z,9.43
2018-07-26T02:26:47.419Z,9.53
2018-07-26T02:29:16.024Z,9.13
2018-07-26T02:31:44.643Z,9.40
2018-07-26T02:34:13.288Z,9.77
2018-07-26T02:36:41.969Z,10.00
2018-07-26T02:39:10.652Z,10.33
2018-07-26T02:41:39.296Z,10.90
2018-07-26T02:44:07.958Z,10.10
2018-07-26T02:46:36.598Z,10.27
2018-07-26T02:49:05.295Z,10.57
2018-07-26T02:51:33.915Z,10.37
2018-07-26T02:54:02.537Z,9.77
2018-07-26T02:56:31.173Z,10.07
2018-07-26T02:58:59.815Z,9.80
2018-07-26T03:01:28.431Z,10.43
2018-07-26T03:03:57.048Z,9.67
2018-07-26T03:06:25.681Z,9.70
2018-07-26T03:08:54.292Z,11.17
2018-07-26T03:11:22.906Z,10.70
2018-07-26T03:13:51.527Z,10.73
2018-07-26T03:16:20.152Z,10.83
2018-07-26T03:18:48.835Z,10.00
2018-07-26T03:21:17.455Z,11.10
2018-07-26T03:23:46.059Z,10.80
2018-07-26T03:26:14.776Z,10.30
2018-07-26T03:28:43.446Z,10.37
2018-07-26T03:31:12.096Z,10.73
2018-07-26T03:33:40.716Z,10.60
2018-07-26T03:36:09.322Z,10.67
2018-07-26T03:38:37.967Z,10.07
2018-07-26T03:41:06.604Z,10.60
2018-07-26T03:43:35.255Z,10.23
2018-07-26T03:46:03.913Z,9.97
2018-07-26T03:48:32.538Z,10.03
2018-07-26T03:51:01.213Z,10.77
2018-07-26T03:53:29.804Z,10.53
2018-07-26T03:55:58.408Z,10.87
2018-07-26T03:58:27.024Z,11.27
2018-07-26T04:00:55.659Z,10.40
2018-07-26T04:03:24.345Z,10.10
2018-07-26T04:05:53.023Z,10.73
2018-07-26T04:08:21.668Z,10.03
2018-07-26T04:10:50.272Z,10.00
2018-07-26T04:13:18.884Z,10.70
2018-07-26T04:15:47.541Z,10.37
2018-07-26T04:18:17.187Z,11.37
2018-07-26T04:20:45.855Z,10.57
2018-07-26T04:23:14.608Z,10.57
2018-07-26T04:25:43.220Z,11.13
2018-07-26T04:28:11.860Z,10.63
2018-07-26T04:30:40.480Z,10.60
2018-07-26T04:33:09.128Z,10.97
2018-07-26T04:35:37.758Z,10.63
2018-07-26T04:38:06.444Z,11.57
2018-07-26T04:40:35.096Z,11.07
2018-07-26T04:43:03.766Z,11.53
2018-07-26T04:45:32.432Z,10.73
2018-07-26T04:48:01.071Z,10.10
2018-07-26T04:50:29.693Z,10.67
2018-07-26T04:52:58.346Z,10.57
2018-07-26T04:55:27.069Z,10.53
2018-07-26T04:57:55.699Z,10.10
2018-07-26T05:00:24.315Z,10.87
2018-07-26T05:02:52.610Z,10.83
2018-07-26T05:05:21.284Z,10.63
2018-07-26T05:07:49.900Z,11.23
2018-07-26T05:10:18.531Z,10.33
2018-07-26T05:12:47.156Z,10.13
2018-07-26T05:15:15.831Z,11.07
2018-07-26T05:17:44.115Z,11.00
2018-07-26T05:20:12.788Z,11.10
2018-07-26T05:22:41.411Z,11.30
2018-07-26T05:25:10.105Z,10.70
2018-07-26T05:27:38.781Z,10.07
2018-07-26T05:30:08.053Z,10.40
2018-07-26T05:32:36.684Z,10.03
2018-07-26T05:35:05.337Z,10.37
2018-07-26T05:37:33.987Z,9.57
2018-07-26T05:40:02.617Z,10.07
2018-07-26T05:42:31.244Z,10.47
2018-07-26T05:44:59.876Z,9.90
2018-07-26T05:47:28.494Z,9.73
2018-07-26T05:49:57.144Z,10.00
2018-07-26T05:52:25.804Z,9.63
2018-07-26T05:54:54.488Z,9.20
2018-07-26T05:57:23.104Z,9.30
2018-07-26T05:59:51.760Z,9.03
2018-07-26T06:02:20.408Z,9.80
2018-07-26T06:04:49.039Z,9.07
2018-07-26T06:07:17.711Z,9.33
2018-07-26T06:09:46.397Z,8.20
2018-07-26T06:12:15.060Z,9.00
2018-07-26T06:14:43.678Z,8.67
2018-07-26T06:17:12.404Z,8.17
2018-07-26T06:19:41.075Z,8.50
2018-07-26T06:22:09.723Z,8.70
2018-07-26T06:24:38.348Z,8.33
2018-07-26T06:27:07.004Z,8.83
2018-07-26T06:29:35.632Z,7.90
2018-07-26T06:32:04.388Z,9.13
2018-07-26T06:34:32.643Z,8.03
2018-07-26T06:37:01.256Z,8.60
2018-07-26T06:39:31.787Z,8.10
2018-07-26T06:42:00.753Z,7.83
2018-07-26T06:44:42.780Z,8.20
2018-07-26T06:50:00.776Z,7.03
2018-07-26T06:52:29.519Z,8.17
2018-07-26T06:54:57.909Z,7.27
2018-07-26T06:57:26.828Z,7.92
2018-07-26T06:59:55.683Z,7.47
2018-07-26T07:02:24.333Z,7.20
2018-07-26T07:04:52.978Z,7.83
2018-07-26T07:07:21.627Z,7.00
2018-07-26T07:09:50.257Z,7.40
2018-07-26T07:12:18.956Z,7.25
2018-07-26T07:14:47.588Z,7.05
2018-07-26T07:17:16.294Z,6.70
2018-07-26T07:19:44.929Z,7.03
2018-07-26T07:22:13.578Z,7.90
2018-07-26T07:24:42.231Z,7.70
2018-07-26T07:27:10.880Z,6.97
2018-07-26T07:29:39.167Z,7.10
2018-07-26T07:32:07.844Z,7.05
2018-07-26T07:34:36.467Z,7.62
2018-07-26T07:37:05.172Z,7.30
2018-07-26T07:39:33.820Z,7.92
2018-07-26T07:42:02.552Z,7.42
2018-07-26T07:44:31.261Z,7.40
2018-07-26T07:46:59.921Z,7.15
2018-07-26T07:49:28.616Z,7.80
2018-07-26T07:51:57.293Z,7.78
2018-07-26T07:54:25.931Z,8.20
2018-07-26T07:56:54.564Z,8.25
2018-07-26T07:59:23.291Z,7.30
2018-07-26T08:01:52.008Z,8.23
2018-07-26T08:04:20.657Z,7.92
2018-07-26T08:06:49.500Z,7.67
2018-07-26T08:09:18.191Z,8.00
2018-07-26T08:11:46.853Z,7.80
2018-07-26T08:14:15.507Z,8.33
2018-07-26T08:16:44.179Z,8.73
2018-07-26T08:19:12.831Z,7.95
2018-07-26T08:21:41.548Z,7.65
2018-07-26T08:24:10.208Z,7.95
2018-07-26T08:26:38.848Z,8.28
2018-07-26T08:29:07.516Z,8.40
2018-07-26T08:31:36.209Z,7.92
2018-07-26T08:34:05.053Z,8.18
2018-07-26T08:36:33.695Z,7.75
2018-07-26T08:39:02.356Z,8.35
2018-07-26T08:41:31.000Z,8.00
2018-07-26T08:43:59.641Z,7.53
2018-07-26T08:46:28.324Z,7.90
2018-07-26T08:48:57.038Z,8.00
2018-07-26T08:51:26.033Z,7.65
2018-07-26T08:53:54.699Z,7.62
2018-07-26T08:56:23.386Z,7.45
2018-07-26T08:58:52.092Z,7.60
2018-07-26T09:01:20.726Z,7.80
2018-07-26T09:03:49.368Z,8.68
2018-07-26T09:06:18.029Z,7.53
2018-07-26T09:08:46.662Z,7.92
2018-07-26T09:11:15.341Z,8.58
2018-07-26T09:13:44.030Z,8.73
2018-07-26T09:16:12.788Z,7.90
2018-07-26T09:18:41.493Z,8.65
2018-07-26T09:21:10.168Z,8.65
2018-07-26T09:23:38.823Z,8.33
2018-07-26T09:26:07.514Z,8.70
2018-07-26T09:28:36.212Z,8.85
2018-07-26T09:31:04.913Z,7.70
2018-07-26T09:33:33.639Z,8.15
2018-07-26T09:36:02.310Z,8.55
2018-07-26T09:38:30.959Z,8.05
2018-07-26T09:40:59.594Z,8.65
2018-07-26T09:43:28.280Z,8.33
2018-07-26T09:45:56.932Z,8.05
2018-07-26T09:48:25.618Z,8.18
2018-07-26T09:50:54.299Z,7.87
2018-07-26T09:53:22.948Z,8.33
2018-07-26T09:55:51.607Z,8.38
2018-07-26T09:58:20.241Z,9.03
2018-07-26T10:00:54.547Z,8.78
2018-07-26T10:03:23.175Z,8.38
2018-07-26T10:05:51.877Z,6.80
2018-07-26T10:08:20.564Z,7.62
2018-07-26T10:10:49.514Z,7.25
2018-07-26T10:13:18.188Z,6.97
2018-07-26T10:15:46.908Z,7.33
2018-07-26T10:18:15.610Z,7.50
2018-07-26T10:20:44.292Z,7.70
2018-07-26T10:23:12.964Z,7.45
2018-07-26T10:25:41.621Z,6.15
2018-07-26T10:28:10.236Z,7.00
2018-07-26T10:30:38.958Z,7.12
2018-07-26T10:33:07.585Z,7.12
2018-07-26T10:35:36.261Z,7.55
2018-07-26T10:38:05.009Z,7.50
2018-07-26T10:40:33.632Z,6.85
2018-07-26T10:43:02.359Z,6.97
2018-07-26T10:45:31.018Z,7.60
2018-07-26T10:47:59.675Z,7.12
2018-07-26T10:50:28.358Z,7.55
2018-07-26T10:52:57.017Z,7.15
2018-07-26T10:55:25.294Z,7.00
2018-07-26T10:57:54.020Z,6.90
2018-07-26T11:00:22.725Z,6.87
2018-07-26T11:02:51.388Z,7.60
2018-07-26T11:05:20.033Z,6.85
2018-07-26T11:07:49.646Z,7.10
2018-07-26T11:10:18.289Z,6.40
2018-07-26T11:12:46.935Z,7.30
2018-07-26T11:15:29.776Z,6.62
2018-07-26T11:18:00.664Z,6.87
2018-07-26T11:20:29.416Z,6.60
2018-07-26T11:22:58.259Z,9.65
2018-07-26T11:25:26.941Z,10.10
2018-07-26T11:27:55.659Z,11.10
2018-07-26T11:32:53.899Z,10.57
2018-07-26T11:35:22.527Z,10.93
2018-07-26T11:37:51.235Z,9.93
2018-07-26T11:40:19.884Z,10.65
2018-07-26T11:42:48.611Z,11.28
2018-07-26T11:45:18.288Z,10.65
2018-07-26T11:47:47.557Z,10.80
2018-07-26T11:50:16.239Z,11.30
2018-07-26T11:52:45.095Z,11.33
2018-07-26T11:55:13.740Z,11.18
2018-07-26T11:57:42.464Z,10.95
2018-07-26T12:00:11.233Z,10.82
2018-07-26T12:02:39.925Z,11.00
2018-07-26T12:05:08.675Z,10.90
2018-07-26T12:07:37.359Z,11.03
2018-07-26T12:10:06.021Z,11.10
2018-07-26T12:12:34.694Z,10.70
2018-07-26T12:15:03.485Z,10.50
2018-07-26T12:17:32.168Z,11.80
2018-07-26T12:20:00.932Z,11.00
2018-07-26T12:22:29.612Z,10.25
2018-07-26T12:24:58.297Z,11.05
2018-07-26T12:27:26.920Z,10.15
2018-07-26T12:29:55.612Z,10.72
2018-07-26T12:32:24.320Z,10.48
2018-07-26T12:34:53.013Z,10.90
2018-07-26T12:37:21.666Z,10.80
2018-07-26T12:39:50.349Z,10.30
2018-07-26T12:42:19.014Z,11.25
2018-07-26T12:44:47.676Z,10.40
2018-07-26T12:47:16.353Z,11.18
2018-07-26T12:49:46.336Z,11.70
2018-07-26T12:52:19.314Z,10.95
2018-07-26T12:54:48.261Z,10.48
2018-07-26T12:57:17.425Z,10.78
2018-07-26T12:59:46.173Z,11.00
2018-07-26T13:02:15.709Z,10.65
2018-07-26T13:04:44.417Z,10.43
2018-07-26T13:07:13.115Z,11.20
2018-07-26T13:09:41.786Z,11.33
2018-07-26T13:12:10.474Z,10.65
2018-07-26T13:14:39.147Z,10.70
2018-07-26T13:17:07.846Z,11.00
2018-07-26T13:19:36.493Z,10.95
2018-07-26T13:22:04.819Z,10.65
2018-07-26T13:24:33.657Z,10.40
2018-07-26T13:27:02.346Z,10.63
2018-07-26T13:29:31.009Z,10.93
2018-07-26T13:31:59.662Z,10.80
2018-07-26T13:34:28.360Z,10.90
2018-07-26T13:36:57.136Z,10.70
2018-07-26T13:39:25.789Z,10.68
2018-07-26T13:41:54.613Z,10.48
2018-07-26T13:44:23.306Z,10.98
2018-07-26T13:46:51.956Z,10.70
2018-07-26T13:49:20.637Z,10.55
2018-07-26T13:51:49.483Z,10.48
2018-07-26T13:54:18.228Z,10.55
2018-07-26T13:56:46.876Z,11.18
2018-07-26T13:59:15.552Z,10.53
2018-07-26T14:01:44.236Z,10.58
2018-07-26T14:04:12.912Z,10.75
2018-07-26T14:06:41.604Z,10.55
2018-07-26T14:09:11.451Z,10.28
2018-07-26T14:11:40.581Z,10.23
2018-07-26T14:14:09.349Z,9.83
2018-07-26T14:16:38.044Z,9.95
2018-07-26T14:19:07.500Z,9.70
2018-07-26T14:21:36.197Z,10.05
2018-07-26T14:24:09.305Z,8.95
2018-07-26T14:26:38.474Z,8.83
2018-07-26T14:29:07.180Z,9.33
2018-07-26T14:31:35.864Z,8.75
2018-07-26T14:34:04.660Z,8.20
2018-07-26T14:36:33.332Z,8.68
2018-07-26T14:39:02.016Z,8.90
2018-07-26T14:41:30.688Z,8.40
2018-07-26T14:43:59.344Z,8.15
2018-07-26T14:46:28.016Z,8.45
2018-07-26T14:48:56.692Z,8.53
2018-07-26T14:51:25.371Z,8.00
2018-07-26T14:53:54.172Z,8.55
2018-07-26T14:56:22.868Z,8.23
2018-07-26T14:58:51.658Z,7.55
2018-07-26T15:01:20.324Z,8.73
2018-07-26T15:03:48.958Z,8.23
2018-07-26T15:06:17.727Z,8.60
2018-07-26T15:08:46.371Z,8.38
2018-07-26T15:11:15.116Z,7.28
2018-07-26T15:13:44.660Z,7.87
2018-07-26T15:16:14.307Z,7.47
2018-07-26T15:18:43.267Z,8.48
2018-07-26T15:21:11.945Z,7.47
2018-07-26T15:23:40.628Z,7.50
2018-07-26T15:26:09.293Z,7.50
2018-07-26T15:28:38.040Z,7.00
2018-07-26T15:31:06.810Z,6.78
2018-07-26T15:33:35.461Z,7.28
2018-07-26T15:36:04.226Z,7.40
2018-07-26T15:38:32.916Z,7.55
2018-07-26T15:41:01.572Z,7.30
2018-07-26T15:43:30.234Z,7.60
2018-07-26T15:45:58.872Z,7.33
2018-07-26T15:48:27.508Z,7.78
2018-07-26T15:50:56.200Z,7.70
2018-07-26T15:53:24.901Z,7.33
2018-07-26T15:55:53.817Z,7.92
2018-07-26T15:58:22.518Z,6.78
2018-07-26T16:00:51.245Z,7.95
2018-07-26T16:03:19.984Z,7.80
2018-07-26T16:05:48.653Z,7.53
2018-07-26T16:08:17.327Z,7.60
2018-07-26T16:10:45.956Z,6.90
2018-07-26T16:13:14.600Z,6.85
2018-07-26T16:15:43.280Z,7.35
2018-07-26T16:18:12.000Z,7.87
2018-07-26T16:20:40.676Z,7.70
2018-07-26T16:23:09.422Z,8.50
2018-07-26T16:25:38.139Z,7.40
2018-07-26T16:28:06.864Z,8.13
2018-07-26T16:30:35.533Z,8.30
2018-07-26T16:33:04.248Z,7.65
2018-07-26T16:35:32.983Z,7.80
2018-07-26T16:38:01.681Z,7.30
2018-07-26T16:40:30.399Z,7.87
2018-07-26T16:42:59.186Z,7.55
2018-07-26T16:45:28.270Z,7.28
2018-07-26T16:47:56.944Z,7.75
2018-07-26T16:50:25.624Z,7.42
2018-07-26T16:52:54.363Z,7.97
2018-07-26T16:55:23.224Z,6.97
2018-07-26T16:57:51.951Z,7.00
2018-07-26T17:00:20.656Z,7.03
2018-07-26T17:02:49.368Z,7.65
2018-07-26T17:05:18.062Z,7.33
2018-07-26T17:07:46.867Z,7.75
2018-07-26T17:10:15.954Z,7.70
2018-07-26T17:12:44.660Z,7.53
2018-07-26T17:15:13.268Z,7.00
2018-07-26T17:17:41.923Z,6.97
2018-07-26T17:20:10.663Z,7.35
2018-07-26T17:22:39.299Z,7.25
2018-07-26T17:25:08.051Z,7.15
2018-07-26T17:27:36.355Z,7.87
2018-07-26T17:30:05.838Z,7.62
2018-07-26T17:32:34.572Z,8.00
2018-07-26T17:35:03.337Z,7.40
2018-07-26T17:37:32.012Z,7.62
2018-07-26T17:40:00.639Z,7.53
2018-07-26T17:42:29.321Z,7.78
2018-07-26T17:44:58.005Z,7.83
2018-07-26T17:47:26.647Z,7.90
2018-07-26T17:49:55.336Z,7.50
2018-07-26T17:52:23.969Z,8.45
2018-07-26T17:54:52.612Z,8.70
2018-07-26T17:57:21.256Z,8.28
2018-07-26T17:59:49.885Z,7.97
2018-07-26T18:02:18.524Z,8.85
2018-07-26T18:04:47.476Z,7.92
2018-07-26T18:07:16.094Z,8.15
2018-07-26T18:09:44.718Z,8.30
2018-07-26T18:12:13.348Z,6.87
2018-07-26T18:14:43.037Z,7.22
2018-07-26T18:19:48.589Z,7.13
2018-07-26T18:22:17.350Z,6.30
2018-07-26T18:24:45.964Z,6.17
2018-07-26T18:27:14.599Z,6.43
2018-07-26T18:29:43.268Z,6.03
2018-07-26T18:32:11.900Z,6.83
2018-07-26T18:34:40.552Z,7.00
2018-07-26T18:37:09.195Z,6.30
2018-07-26T18:39:37.816Z,6.80
2018-07-26T18:42:06.497Z,6.43
2018-07-26T18:44:35.144Z,6.10
2018-07-26T18:47:04.190Z,6.30
2018-07-26T18:52:28.231Z,6.73
2018-07-26T18:54:59.062Z,6.63
2018-07-26T18:57:27.703Z,6.63
2018-07-26T18:59:56.404Z,7.63
2018-07-26T19:02:25.096Z,6.87
2018-07-26T19:04:53.756Z,7.03
2018-07-26T19:07:22.384Z,6.70
2018-07-26T19:09:51.016Z,7.00
2018-07-26T19:12:19.676Z,7.20
2018-07-26T19:14:48.306Z,7.93
2018-07-26T19:17:17.003Z,7.40
2018-07-26T19:19:45.279Z,7.27
2018-07-26T19:22:22.073Z,7.37
2018-07-26T19:24:56.252Z,9.07
2018-07-26T19:27:48.812Z,7.27
2018-07-26T19:33:15.032Z,7.23
2018-07-26T19:35:58.608Z,7.07
2018-07-26T19:38:27.253Z,7.70
2018-07-26T19:40:55.929Z,7.60
2018-07-26T19:43:24.676Z,8.03
2018-07-26T19:45:53.307Z,7.83
2018-07-26T19:48:23.123Z,7.20
2018-07-26T19:51:04.607Z,7.20
2018-07-26T20:01:32.367Z,7.60
2018-07-26T20:04:01.164Z,10.87
2018-07-26T20:06:29.766Z,9.80
2018-07-26T20:08:58.401Z,8.80
2018-07-26T20:11:27.073Z,8.47
2018-07-26T20:13:55.782Z,8.93
2018-07-26T20:16:24.434Z,9.20
2018-07-26T20:18:53.060Z,8.27
2018-07-26T20:21:21.688Z,9.37
2018-07-26T20:23:50.292Z,9.53
2018-07-26T20:26:18.945Z,9.00
2018-07-26T20:28:47.564Z,8.07
2018-07-26T20:31:16.208Z,8.30
2018-07-26T20:33:44.852Z,8.80
2018-07-26T20:36:13.584Z,9.13
2018-07-26T20:38:42.263Z,8.83
2018-07-26T20:41:10.973Z,8.57
2018-07-26T20:43:39.590Z,8.87
2018-07-26T20:46:08.320Z,8.87
2018-07-26T20:48:37.008Z,8.70
2018-07-26T20:51:05.636Z,9.07
2018-07-26T20:53:34.348Z,9.00
2018-07-26T20:56:02.963Z,9.63
2018-07-26T20:58:31.581Z,9.57
2018-07-26T21:01:00.194Z,9.20
2018-07-26T21:03:28.816Z,9.10
2018-07-26T21:05:57.718Z,9.10
2018-07-26T21:08:26.332Z,9.87
2018-07-26T21:10:54.946Z,10.37
2018-07-26T21:13:23.568Z,9.13
2018-07-26T21:15:52.215Z,9.50
2018-07-26T21:18:21.336Z,9.47
2018-07-26T21:20:49.955Z,9.77
2018-07-26T21:23:18.579Z,9.43
2018-07-26T21:25:47.232Z,10.77
2018-07-26T21:28:15.884Z,9.77
2018-07-26T21:30:44.520Z,10.17
2018-07-26T21:33:13.136Z,10.20
2018-07-26T21:35:41.763Z,10.40
2018-07-26T21:38:10.420Z,10.40
2018-07-26T21:40:39.108Z,9.90
2018-07-26T21:43:07.792Z,10.53
2018-07-26T21:45:36.523Z,10.50
2018-07-26T21:48:05.208Z,9.77
2018-07-26T21:50:33.840Z,10.97
2018-07-26T21:53:02.552Z,11.10
2018-07-26T21:55:31.335Z,10.87
2018-07-26T21:58:00.064Z,10.40
2018-07-26T22:00:41.789Z,10.27
2018-07-26T22:04:34.766Z,10.47
2018-07-26T22:07:03.524Z,10.80
2018-07-26T22:09:32.145Z,11.40
2018-07-26T22:12:00.797Z,10.80
2018-07-26T22:14:29.488Z,10.10
2018-07-26T22:16:58.101Z,10.63
2018-07-26T22:19:26.740Z,10.80
2018-07-26T22:21:55.408Z,11.37
2018-07-26T22:24:24.017Z,11.20
2018-07-26T22:26:52.937Z,11.00
2018-07-26T22:29:21.564Z,10.57
2018-07-26T22:31:50.244Z,10.03
2018-07-26T22:34:19.950Z,10.63
2018-07-26T22:36:48.635Z,11.10
2018-07-26T22:39:17.315Z,11.70
2018-07-26T22:41:46.016Z,11.27
2018-07-26T22:44:14.648Z,11.53
2018-07-26T22:46:43.280Z,12.07
2018-07-26T22:49:11.900Z,11.20
2018-07-26T22:51:41.131Z,10.90
2018-07-26T22:54:09.866Z,11.70
2018-07-26T22:56:39.306Z,11.40
2018-07-26T22:59:07.983Z,11.17
2018-07-26T23:01:36.772Z,11.53
2018-07-26T23:04:05.472Z,11.10
2018-07-26T23:06:34.143Z,11.20
2018-07-26T23:09:03.012Z,11.43
2018-07-26T23:11:31.668Z,11.40
2018-07-26T23:17:31.820Z,12.13
2018-07-26T23:20:00.478Z,11.90
2018-07-26T23:22:29.148Z,12.20
2018-07-26T23:24:57.873Z,12.37
2018-07-26T23:27:26.557Z,13.17
2018-07-26T23:29:55.256Z,12.57
2018-07-26T23:32:23.924Z,13.20
2018-07-26T23:34:52.584Z,13.37
2018-07-26T23:37:21.199Z,13.47
2018-07-26T23:39:49.808Z,13.10
2018-07-26T23:42:18.508Z,12.07
2018-07-26T23:44:47.928Z,12.97
2018-07-26T23:47:16.604Z,12.17
2018-07-26T23:49:45.226Z,13.80
2018-07-26T23:52:13.860Z,12.97
2018-07-26T23:54:42.477Z,14.13
2018-07-26T23:57:11.109Z,12.50
2018-07-26T23:59:39.807Z,13.00
